Palisade, CO (81526)

7:40 AM MDT en Octubre 30, 2014 (GMT -0600)
Rapid Creek Road | Change Station
CLOSE
Current Station
Estación meteorológica personal
Location: Palisade, CO
Altura: 4980 ft
Estaciones meteorológicas cercanas

Alt 4980 ft 39.13 °N, 108.32 °W | Updated 5 minutes ago

Despejado
Despejado
39.1 ° F
Sensación térmica 34 ° F
N
7.0
Viento Variable Viento desde SE
Gusts 16.0 mph

Hoy
Alta -- | Baja -- ° F
--% Posibilidad de precipitaciones
Ayer
Alta -- | Baja -- ° F
Precip. -- pul
7:38 AM 6:14 PM
Creciente, 44% visible
Presión 30.34 pul
Visibilidad 10.0 Millas
Nubes Despejado
Vientos helados 34 ° F
Punto de rocío 22 ° F
Humedad 50%
Precipitaciones 0.00 pul
Espesor de la nieve No disponible.
UV 0 de una escala de 12
Polen .70 de una escala de 12
Calidad del aire No disponible.
Flu Activity No disponible.
METAR KGJT 301253Z 12005KT 10SM CLR 01/M07 A3034 RMK AO2 SLP272 T00111067

More Conditions Fewer Conditions

Presión 30.34 pul
Visibilidad 10.0 Millas
Nubes Despejado
Vientos helados 34 ° F
Punto de rocío 22 ° F
Humedad 50%
Precipitaciones 0.00 pul
Espesor de la nieve No disponible.
UV 0 de una escala de 12
Polen .70 de una escala de 12
Calidad del aire No disponible.
Flu Activity No disponible.
METAR KGJT 301253Z 12005KT 10SM CLR 01/M07 A3034 RMK AO2 SLP272 T00111067

More Conditions Fewer Conditions

10-Day Weather Forecast

Almanac

Astronomía

Oct. 30, 2014 Salida Puesta
Hora real
Crepúsculo civil
Crepúsculo náutico
Crepúsculo astronómico
Luna
Horas de luz
Horas de luz
Tomorrow will be .
, % of the Moon is Illuminated

Extremos de hoy

Máximos del estado Bajos del estado

Community

WunderPhotos

Upload Photos

1,766,358 ¡fotos cargadas!

WunderBlogs® & News

Nearby

Calidad del aire

  Calidad del aire Índice AQ Contaminante
Not available.

Grosos de nieve

Estación Profundido Altura

Actividad de terremotos

Ciudad Distance Mag. Tiempo y dato
Magnitud mínima muestra es 2,5.

Temperaturas de aguas costeras

Lugar Temperatura

Estaciones meteorológicas cercanas